sensor_id;sensor_type;location;lat;lon;timestamp;noise_LAeq;noise_LA_min;noise_LA_max;noise_LA01;noise_LA95
69620;Laerm;57654;51.434;5.984;2023-10-31T00:00:03;36.42;34.84;40.16;;
69620;Laerm;57654;51.434;5.984;2023-10-31T00:00:14;37.84;35.33;41.05;;
69620;Laerm;57654;51.434;5.984;2023-10-31T00:00:24;37.33;35.07;40.33;;
69620;Laerm;57654;51.434;5.984;2023-10-31T00:00:35;37.12;35.08;39.64;;
69620;Laerm;57654;51.434;5.984;2023-10-31T00:00:45;39.66;37.10;41.61;;
69620;Laerm;57654;51.434;5.984;2023-10-31T00:00:55;39.15;37.44;42.68;;
69620;Laerm;57654;51.434;5.984;2023-10-31T00:01:05;37.75;36.12;41.78;;
69620;Laerm;57654;51.434;5.984;2023-10-31T00:01:15;38.63;36.50;40.41;;
69620;Laerm;57654;51.434;5.984;2023-10-31T00:01:26;38.69;37.12;40.39;;
69620;Laerm;57654;51.434;5.984;2023-10-31T00:01:36;37.40;35.13;39.91;;
69620;Laerm;57654;51.434;5.984;2023-10-31T00:01:46;37.06;35.30;40.82;;
69620;Laerm;57654;51.434;5.984;2023-10-31T00:01:56;39.36;35.72;42.06;;
69620;Laerm;57654;51.434;5.984;2023-10-31T00:02:07;39.32;36.86;43.84;;
69620;Laerm;57654;51.434;5.984;2023-10-31T00:02:17;40.87;38.34;44.14;;
69620;Laerm;57654;51.434;5.984;2023-10-31T00:02:28;40.52;38.77;42.84;;
69620;Laerm;57654;51.434;5.984;2023-10-31T00:02:38;41.22;40.06;42.70;;
69620;Laerm;57654;51.434;5.984;2023-10-31T00:02:49;41.14;39.46;44.04;;
69620;Laerm;57654;51.434;5.984;2023-10-31T00:02:59;42.34;40.11;46.24;;
69620;Laerm;57654;51.434;5.984;2023-10-31T00:03:09;41.51;39.12;42.81;;
69620;Laerm;57654;51.434;5.984;2023-10-31T00:03:20;40.25;38.25;42.47;;
69620;Laerm;57654;51.434;5.984;2023-10-31T00:03:31;40.92;39.01;44.73;;
69620;Laerm;57654;51.434;5.984;2023-10-31T00:03:41;40.21;38.82;43.54;;
69620;Laerm;57654;51.434;5.984;2023-10-31T00:03:52;41.91;38.82;46.85;;
69620;Laerm;57654;51.434;5.984;2023-10-31T00:04:03;41.27;39.09;44.33;;
69620;Laerm;57654;51.434;5.984;2023-10-31T00:04:13;41.46;39.64;46.01;;
69620;Laerm;57654;51.434;5.984;2023-10-31T00:04:23;42.18;39.72;52.28;;
69620;Laerm;57654;51.434;5.984;2023-10-31T00:04:34;39.35;37.60;42.95;;
69620;Laerm;57654;51.434;5.984;2023-10-31T00:04:44;38.18;36.52;40.01;;
69620;Laerm;57654;51.434;5.984;2023-10-31T00:04:54;36.11;33.90;39.22;;
69620;Laerm;57654;51.434;5.984;2023-10-31T00:05:04;34.85;33.32;37.27;;
69620;Laerm;57654;51.434;5.984;2023-10-31T00:05:15;34.72;33.42;36.88;;
69620;Laerm;57654;51.434;5.984;2023-10-31T00:05:25;35.61;33.92;37.81;;
69620;Laerm;57654;51.434;5.984;2023-10-31T00:05:35;35.25;33.55;38.92;;
69620;Laerm;57654;51.434;5.984;2023-10-31T00:05:46;33.46;31.45;36.87;;
69620;Laerm;57654;51.434;5.984;2023-10-31T00:05:56;33.08;31.55;37.08;;
69620;Laerm;57654;51.434;5.984;2023-10-31T00:06:06;32.65;31.25;35.32;;
69620;Laerm;57654;51.434;5.984;2023-10-31T00:06:16;31.95;30.63;34.12;;
69620;Laerm;57654;51.434;5.984;2023-10-31T00:06:27;31.94;30.10;36.52;;
69620;Laerm;57654;51.434;5.984;2023-10-31T00:06:37;32.03;30.41;35.96;;
69620;Laerm;57654;51.434;5.984;2023-10-31T00:06:47;34.36;31.45;40.04;;
69620;Laerm;57654;51.434;5.984;2023-10-31T00:06:57;34.84;33.06;40.92;;
69620;Laerm;57654;51.434;5.984;2023-10-31T00:07:08;36.11;33.75;37.68;;
69620;Laerm;57654;51.434;5.984;2023-10-31T00:07:18;36.13;33.16;39.01;;
69620;Laerm;57654;51.434;5.984;2023-10-31T00:07:28;34.66;33.39;36.02;;
69620;Laerm;57654;51.434;5.984;2023-10-31T00:07:39;34.19;32.11;39.25;;
69620;Laerm;57654;51.434;5.984;2023-10-31T00:07:49;32.46;31.20;35.11;;
69620;Laerm;57654;51.434;5.984;2023-10-31T00:08:00;33.41;31.39;39.61;;
69620;Laerm;57654;51.434;5.984;2023-10-31T00:08:10;35.50;33.62;37.85;;
69620;Laerm;57654;51.434;5.984;2023-10-31T00:08:20;33.18;31.59;35.68;;
69620;Laerm;57654;51.434;5.984;2023-10-31T00:08:31;33.68;31.78;39.58;;
69620;Laerm;57654;51.434;5.984;2023-10-31T00:08:41;33.26;31.62;35.97;;
69620;Laerm;57654;51.434;5.984;2023-10-31T00:08:51;34.49;33.13;36.81;;
69620;Laerm;57654;51.434;5.984;2023-10-31T00:09:02;33.74;31.66;41.98;;
69620;Laerm;57654;51.434;5.984;2023-10-31T00:09:12;33.53;31.37;38.18;;
69620;Laerm;57654;51.434;5.984;2023-10-31T00:09:22;34.49;31.97;36.66;;
69620;Laerm;57654;51.434;5.984;2023-10-31T00:09:32;35.07;32.71;37.44;;
69620;Laerm;57654;51.434;5.984;2023-10-31T00:09:43;37.42;32.93;42.12;;
69620;Laerm;57654;51.434;5.984;2023-10-31T00:09:53;48.87;40.41;52.81;;
69620;Laerm;57654;51.434;5.984;2023-10-31T00:10:03;51.09;48.54;53.13;;
69620;Laerm;57654;51.434;5.984;2023-10-31T00:10:14;50.24;45.60;52.86;;
69620;Laerm;57654;51.434;5.984;2023-10-31T00:10:24;39.86;31.29;46.79;;
69620;Laerm;57654;51.434;5.984;2023-10-31T00:10:34;32.12;30.81;34.81;;
69620;Laerm;57654;51.434;5.984;2023-10-31T00:10:44;32.28;30.71;35.65;;
69620;Laerm;57654;51.434;5.984;2023-10-31T00:10:55;31.51;30.11;35.31;;
69620;Laerm;57654;51.434;5.984;2023-10-31T00:11:05;35.39;30.25;38.41;;
69620;Laerm;57654;51.434;5.984;2023-10-31T00:11:15;32.10;30.50;35.41;;
69620;Laerm;57654;51.434;5.984;2023-10-31T00:11:26;33.84;31.61;41.21;;
69620;Laerm;57654;51.434;5.984;2023-10-31T00:11:36;33.59;31.80;40.71;;
69620;Laerm;57654;51.434;5.984;2023-10-31T00:11:47;33.99;31.59;37.19;;
69620;Laerm;57654;51.434;5.984;2023-10-31T00:11:57;33.10;31.09;36.74;;
69620;Laerm;57654;51.434;5.984;2023-10-31T00:12:07;32.05;30.45;34.39;;
69620;Laerm;57654;51.434;5.984;2023-10-31T00:12:18;31.52;30.12;34.99;;
69620;Laerm;57654;51.434;5.984;2023-10-31T00:12:28;31.62;30.12;34.37;;
69620;Laerm;57654;51.434;5.984;2023-10-31T00:12:38;32.18;30.88;34.58;;
69620;Laerm;57654;51.434;5.984;2023-10-31T00:12:49;32.69;30.82;36.98;;
69620;Laerm;57654;51.434;5.984;2023-10-31T00:13:00;36.39;32.91;43.19;;
69620;Laerm;57654;51.434;5.984;2023-10-31T00:13:10;38.82;36.31;42.39;;
69620;Laerm;57654;51.434;5.984;2023-10-31T00:13:21;37.00;34.27;41.38;;
69620;Laerm;57654;51.434;5.984;2023-10-31T00:13:31;34.54;32.34;36.72;;
69620;Laerm;57654;51.434;5.984;2023-10-31T00:13:42;32.23;30.08;35.66;;
69620;Laerm;57654;51.434;5.984;2023-10-31T00:13:52;31.81;30.14;36.01;;
69620;Laerm;57654;51.434;5.984;2023-10-31T00:14:02;31.34;29.86;35.53;;
69620;Laerm;57654;51.434;5.984;2023-10-31T00:14:12;31.57;30.00;34.56;;
69620;Laerm;57654;51.434;5.984;2023-10-31T00:14:23;31.48;29.85;34.35;;
69620;Laerm;57654;51.434;5.984;2023-10-31T00:14:33;30.76;29.47;35.24;;
69620;Laerm;57654;51.434;5.984;2023-10-31T00:14:43;30.60;29.26;33.13;;
69620;Laerm;57654;51.434;5.984;2023-10-31T00:14:53;30.97;29.41;37.48;;
69620;Laerm;57654;51.434;5.984;2023-10-31T00:15:04;30.51;29.13;35.70;;
69620;Laerm;57654;51.434;5.984;2023-10-31T00:15:14;30.62;29.23;33.16;;
69620;Laerm;57654;51.434;5.984;2023-10-31T00:15:24;30.90;29.15;36.02;;
69620;Laerm;57654;51.434;5.984;2023-10-31T00:15:35;31.11;29.33;36.17;;
69620;Laerm;57654;51.434;5.984;2023-10-31T00:15:45;31.01;29.57;34.57;;
69620;Laerm;57654;51.434;5.984;2023-10-31T00:15:55;31.24;29.76;35.64;;
69620;Laerm;57654;51.434;5.984;2023-10-31T00:16:06;32.23;29.50;49.61;;
69620;Laerm;57654;51.434;5.984;2023-10-31T00:16:16;30.61;29.23;33.80;;
69620;Laerm;57654;51.434;5.984;2023-10-31T00:16:26;31.33;29.51;35.82;;
69620;Laerm;57654;51.434;5.984;2023-10-31T00:16:36;31.52;30.01;34.86;;
69620;Laerm;57654;51.434;5.984;2023-10-31T00:16:47;31.05;29.30;34.67;;
69620;Laerm;57654;51.434;5.984;2023-10-31T00:16:58;31.23;29.54;36.51;;
69620;Laerm;57654;51.434;5.984;2023-10-31T00:17:09;31.23;29.86;34.88;;
69620;Laerm;57654;51.434;5.984;2023-10-31T00:17:19;30.98;29.64;35.54;;
69620;Laerm;57654;51.434;5.984;2023-10-31T00:17:29;30.98;29.29;35.21;;
69620;Laerm;57654;51.434;5.984;2023-10-31T00:17:39;31.11;28.94;37.99;;
69620;Laerm;57654;51.434;5.984;2023-10-31T00:17:50;32.41;30.61;36.08;;
69620;Laerm;57654;51.434;5.984;2023-10-31T00:18:00;33.17;31.36;35.17;;
69620;Laerm;57654;51.434;5.984;2023-10-31T00:18:10;31.48;29.37;35.44;;
69620;Laerm;57654;51.434;5.984;2023-10-31T00:18:20;31.48;29.42;34.67;;
69620;Laerm;57654;51.434;5.984;2023-10-31T00:18:31;31.80;30.29;36.92;;
69620;Laerm;57654;51.434;5.984;2023-10-31T00:18:41;35.55;30.10;39.57;;
69620;Laerm;57654;51.434;5.984;2023-10-31T00:18:51;33.79;31.92;36.50;;
69620;Laerm;57654;51.434;5.984;2023-10-31T00:19:02;33.70;31.35;36.19;;
69620;Laerm;57654;51.434;5.984;2023-10-31T00:19:12;33.30;31.40;36.73;;
69620;Laerm;57654;51.434;5.984;2023-10-31T00:19:22;32.68;31.08;37.29;;
69620;Laerm;57654;51.434;5.984;2023-10-31T00:19:32;32.78;31.28;36.70;;
69620;Laerm;57654;51.434;5.984;2023-10-31T00:19:42;32.54;30.70;35.87;;
69620;Laerm;57654;51.434;5.984;2023-10-31T00:19:54;32.01;30.40;35.11;;
69620;Laerm;57654;51.434;5.984;2023-10-31T00:20:04;32.00;30.43;35.73;;
69620;Laerm;57654;51.434;5.984;2023-10-31T00:20:15;31.43;30.01;33.86;;
69620;Laerm;57654;51.434;5.984;2023-10-31T00:20:25;31.07;29.61;35.15;;
69620;Laerm;57654;51.434;5.984;2023-10-31T00:20:35;32.62;30.99;37.00;;
69620;Laerm;57654;51.434;5.984;2023-10-31T00:20:46;32.51;31.11;35.29;;
69620;Laerm;57654;51.434;5.984;2023-10-31T00:20:56;32.86;31.43;35.15;;
69620;Laerm;57654;51.434;5.984;2023-10-31T00:21:07;34.23;31.50;38.94;;
69620;Laerm;57654;51.434;5.984;2023-10-31T00:21:18;34.88;32.54;37.46;;
69620;Laerm;57654;51.434;5.984;2023-10-31T00:21:28;34.28;32.48;37.11;;
69620;Laerm;57654;51.434;5.984;2023-10-31T00:21:38;35.47;32.95;38.40;;
69620;Laerm;57654;51.434;5.984;2023-10-31T00:21:49;41.73;34.75;48.33;;
69620;Laerm;57654;51.434;5.984;2023-10-31T00:21:59;49.01;45.46;51.09;;
69620;Laerm;57654;51.434;5.984;2023-10-31T00:22:10;48.80;45.66;51.75;;
69620;Laerm;57654;51.434;5.984;2023-10-31T00:22:20;45.51;34.67;48.84;;
69620;Laerm;57654;51.434;5.984;2023-10-31T00:22:31;34.79;32.20;37.83;;
69620;Laerm;57654;51.434;5.984;2023-10-31T00:22:41;32.16;30.16;35.70;;
69620;Laerm;57654;51.434;5.984;2023-10-31T00:22:51;32.24;29.91;36.48;;
69620;Laerm;57654;51.434;5.984;2023-10-31T00:23:01;32.63;30.44;38.01;;
69620;Laerm;57654;51.434;5.984;2023-10-31T00:23:12;31.41;30.02;34.10;;
69620;Laerm;57654;51.434;5.984;2023-10-31T00:23:22;31.76;29.74;37.30;;
69620;Laerm;57654;51.434;5.984;2023-10-31T00:23:32;31.49;29.81;36.79;;
69620;Laerm;57654;51.434;5.984;2023-10-31T00:23:43;31.92;30.62;35.76;;
69620;Laerm;57654;51.434;5.984;2023-10-31T00:23:54;33.23;30.83;36.91;;
69620;Laerm;57654;51.434;5.984;2023-10-31T00:24:04;34.20;31.19;39.67;;
69620;Laerm;57654;51.434;5.984;2023-10-31T00:24:14;34.45;32.25;39.05;;
69620;Laerm;57654;51.434;5.984;2023-10-31T00:24:25;33.16;31.44;36.09;;
69620;Laerm;57654;51.434;5.984;2023-10-31T00:24:36;32.32;30.89;36.27;;
69620;Laerm;57654;51.434;5.984;2023-10-31T00:24:46;33.14;30.88;36.94;;
69620;Laerm;57654;51.434;5.984;2023-10-31T00:24:56;32.80;31.40;35.31;;
69620;Laerm;57654;51.434;5.984;2023-10-31T00:25:06;32.42;31.06;34.93;;
69620;Laerm;57654;51.434;5.984;2023-10-31T00:25:17;32.51;30.99;37.52;;
69620;Laerm;57654;51.434;5.984;2023-10-31T00:25:27;36.16;31.48;41.66;;
69620;Laerm;57654;51.434;5.984;2023-10-31T00:25:37;36.82;33.50;41.74;;
69620;Laerm;57654;51.434;5.984;2023-10-31T00:25:47;38.95;33.79;43.34;;
69620;Laerm;57654;51.434;5.984;2023-10-31T00:25:57;35.41;33.34;38.61;;
69620;Laerm;57654;51.434;5.984;2023-10-31T00:26:08;34.08;32.26;36.08;;
69620;Laerm;57654;51.434;5.984;2023-10-31T00:26:19;33.32;30.57;45.90;;
69620;Laerm;57654;51.434;5.984;2023-10-31T00:26:30;33.66;30.44;49.95;;
69620;Laerm;57654;51.434;5.984;2023-10-31T00:26:40;31.49;30.34;35.42;;
69620;Laerm;57654;51.434;5.984;2023-10-31T00:26:50;32.03;30.26;35.87;;
69620;Laerm;57654;51.434;5.984;2023-10-31T00:27:01;31.31;29.82;34.86;;
69620;Laerm;57654;51.434;5.984;2023-10-31T00:27:11;33.17;30.29;35.77;;
69620;Laerm;57654;51.434;5.984;2023-10-31T00:27:21;36.04;33.88;38.74;;
69620;Laerm;57654;51.434;5.984;2023-10-31T00:27:32;38.16;35.48;40.67;;
69620;Laerm;57654;51.434;5.984;2023-10-31T00:27:42;36.62;32.31;43.94;;
69620;Laerm;57654;51.434;5.984;2023-10-31T00:27:52;33.19;31.97;35.41;;
69620;Laerm;57654;51.434;5.984;2023-10-31T00:28:02;32.87;30.97;35.16;;
69620;Laerm;57654;51.434;5.984;2023-10-31T00:28:13;32.61;30.97;35.94;;
69620;Laerm;57654;51.434;5.984;2023-10-31T00:28:23;32.62;30.81;39.18;;
69620;Laerm;57654;51.434;5.984;2023-10-31T00:28:33;34.15;31.67;37.28;;
69620;Laerm;57654;51.434;5.984;2023-10-31T00:28:44;33.10;31.49;36.50;;
69620;Laerm;57654;51.434;5.984;2023-10-31T00:28:54;32.35;30.88;39.83;;
69620;Laerm;57654;51.434;5.984;2023-10-31T00:29:04;34.30;31.26;37.15;;
69620;Laerm;57654;51.434;5.984;2023-10-31T00:29:14;38.59;34.40;41.68;;
69620;Laerm;57654;51.434;5.984;2023-10-31T00:29:25;35.27;32.65;36.83;;
69620;Laerm;57654;51.434;5.984;2023-10-31T00:29:35;32.83;30.54;35.35;;
69620;Laerm;57654;51.434;5.984;2023-10-31T00:29:45;32.16;30.37;35.71;;
69620;Laerm;57654;51.434;5.984;2023-10-31T00:29:55;32.02;30.34;34.62;;
69620;Laerm;57654;51.434;5.984;2023-10-31T00:30:06;31.69;29.86;36.39;;
69620;Laerm;57654;51.434;5.984;2023-10-31T00:30:16;31.28;29.83;34.64;;
69620;Laerm;57654;51.434;5.984;2023-10-31T00:30:27;31.53;30.26;34.42;;
69620;Laerm;57654;51.434;5.984;2023-10-31T00:30:37;31.62;30.38;34.91;;
69620;Laerm;57654;51.434;5.984;2023-10-31T00:30:47;32.41;30.59;37.24;;
69620;Laerm;57654;51.434;5.984;2023-10-31T00:30:57;32.86;31.14;36.07;;
69620;Laerm;57654;51.434;5.984;2023-10-31T00:31:08;31.81;30.49;36.18;;
69620;Laerm;57654;51.434;5.984;2023-10-31T00:31:19;32.07;30.55;34.92;;
69620;Laerm;57654;51.434;5.984;2023-10-31T00:31:29;33.08;31.80;34.53;;
69620;Laerm;57654;51.434;5.984;2023-10-31T00:31:39;35.01;31.68;38.36;;
69620;Laerm;57654;51.434;5.984;2023-10-31T00:31:52;34.74;32.33;37.48;;
69620;Laerm;57654;51.434;5.984;2023-10-31T00:32:03;34.72;31.99;37.34;;
69620;Laerm;57654;51.434;5.984;2023-10-31T00:32:13;33.88;31.75;36.28;;
69620;Laerm;57654;51.434;5.984;2023-10-31T00:32:23;32.25;31.08;34.51;;
69620;Laerm;57654;51.434;5.984;2023-10-31T00:32:35;32.32;30.91;36.98;;
69620;Laerm;57654;51.434;5.984;2023-10-31T00:32:46;32.95;31.57;35.26;;
69620;Laerm;57654;51.434;5.984;2023-10-31T00:32:56;32.31;30.66;36.60;;
69620;Laerm;57654;51.434;5.984;2023-10-31T00:33:06;32.44;30.64;34.55;;
69620;Laerm;57654;51.434;5.984;2023-10-31T00:33:16;32.99;30.70;43.38;;
69620;Laerm;57654;51.434;5.984;2023-10-31T00:33:27;32.28;30.49;35.93;;
69620;Laerm;57654;51.434;5.984;2023-10-31T00:33:37;32.19;30.29;35.21;;
69620;Laerm;57654;51.434;5.984;2023-10-31T00:33:48;32.90;31.05;36.89;;
69620;Laerm;57654;51.434;5.984;2023-10-31T00:33:58;36.50;33.72;39.92;;
69620;Laerm;57654;51.434;5.984;2023-10-31T00:34:09;38.06;35.34;40.93;;
69620;Laerm;57654;51.434;5.984;2023-10-31T00:34:20;36.91;34.74;39.40;;
69620;Laerm;57654;51.434;5.984;2023-10-31T00:34:30;36.16;32.29;39.76;;
69620;Laerm;57654;51.434;5.984;2023-10-31T00:34:40;32.47;30.60;36.60;;
69620;Laerm;57654;51.434;5.984;2023-10-31T00:34:51;31.34;29.63;34.47;;
69620;Laerm;57654;51.434;5.984;2023-10-31T00:35:01;31.60;30.00;35.12;;
69620;Laerm;57654;51.434;5.984;2023-10-31T00:35:11;31.99;30.14;36.95;;
69620;Laerm;57654;51.434;5.984;2023-10-31T00:35:22;33.41;30.71;36.59;;
69620;Laerm;57654;51.434;5.984;2023-10-31T00:35:32;32.05;30.64;36.24;;
69620;Laerm;57654;51.434;5.984;2023-10-31T00:35:43;34.08;30.40;39.30;;
69620;Laerm;57654;51.434;5.984;2023-10-31T00:35:53;32.87;31.50;36.52;;
69620;Laerm;57654;51.434;5.984;2023-10-31T00:36:03;32.29;30.45;35.14;;
69620;Laerm;57654;51.434;5.984;2023-10-31T00:36:13;31.84;30.15;35.38;;
69620;Laerm;57654;51.434;5.984;2023-10-31T00:36:24;32.02;30.67;37.66;;
69620;Laerm;57654;51.434;5.984;2023-10-31T00:36:34;32.19;30.90;35.58;;
69620;Laerm;57654;51.434;5.984;2023-10-31T00:36:44;34.45;31.32;38.34;;
69620;Laerm;57654;51.434;5.984;2023-10-31T00:36:54;34.88;32.53;38.69;;
69620;Laerm;57654;51.434;5.984;2023-10-31T00:37:05;35.05;33.03;37.98;;
69620;Laerm;57654;51.434;5.984;2023-10-31T00:37:15;43.19;36.30;48.68;;
69620;Laerm;57654;51.434;5.984;2023-10-31T00:37:25;49.50;46.82;51.86;;
69620;Laerm;57654;51.434;5.984;2023-10-31T00:37:35;50.84;48.45;53.30;;
69620;Laerm;57654;51.434;5.984;2023-10-31T00:37:46;48.04;37.97;52.03;;
69620;Laerm;57654;51.434;5.984;2023-10-31T00:37:56;34.08;31.43;40.13;;
69620;Laerm;57654;51.434;5.984;2023-10-31T00:38:06;33.85;30.65;37.43;;
69620;Laerm;57654;51.434;5.984;2023-10-31T00:38:16;31.82;30.53;34.55;;
69620;Laerm;57654;51.434;5.984;2023-10-31T00:38:26;32.49;30.63;35.29;;
69620;Laerm;57654;51.434;5.984;2023-10-31T00:38:37;32.44;30.95;37.34;;
69620;Laerm;57654;51.434;5.984;2023-10-31T00:38:47;32.88;30.56;36.22;;
69620;Laerm;57654;51.434;5.984;2023-10-31T00:38:58;31.85;30.06;36.47;;
69620;Laerm;57654;51.434;5.984;2023-10-31T00:39:08;30.87;29.31;34.48;;
69620;Laerm;57654;51.434;5.984;2023-10-31T00:39:18;30.71;28.98;33.67;;
69620;Laerm;57654;51.434;5.984;2023-10-31T00:39:28;30.69;29.14;34.50;;
69620;Laerm;57654;51.434;5.984;2023-10-31T00:39:38;30.97;29.56;34.62;;
69620;Laerm;57654;51.434;5.984;2023-10-31T00:39:49;31.46;30.01;34.95;;
69620;Laerm;57654;51.434;5.984;2023-10-31T00:39:59;31.29;29.74;35.96;;
69620;Laerm;57654;51.434;5.984;2023-10-31T00:40:09;31.72;29.63;34.77;;
69620;Laerm;57654;51.434;5.984;2023-10-31T00:40:21;34.57;31.64;52.54;;
69620;Laerm;57654;51.434;5.984;2023-10-31T00:40:31;33.37;31.84;36.83;;
69620;Laerm;57654;51.434;5.984;2023-10-31T00:40:41;32.58;30.89;35.31;;
69620;Laerm;57654;51.434;5.984;2023-10-31T00:40:52;31.26;29.79;32.97;;
69620;Laerm;57654;51.434;5.984;2023-10-31T00:41:02;30.78;29.38;34.40;;
69620;Laerm;57654;51.434;5.984;2023-10-31T00:41:12;30.84;29.30;35.02;;
69620;Laerm;57654;51.434;5.984;2023-10-31T00:41:22;30.89;29.32;35.04;;
69620;Laerm;57654;51.434;5.984;2023-10-31T00:41:33;30.49;28.89;35.00;;
69620;Laerm;57654;51.434;5.984;2023-10-31T00:41:43;31.52;29.66;33.40;;
69620;Laerm;57654;51.434;5.984;2023-10-31T00:41:54;32.32;30.27;37.60;;
69620;Laerm;57654;51.434;5.984;2023-10-31T00:42:04;32.59;30.78;34.90;;
69620;Laerm;57654;51.434;5.984;2023-10-31T00:42:15;32.15;30.83;35.13;;
69620;Laerm;57654;51.434;5.984;2023-10-31T00:42:25;33.00;31.24;36.86;;
69620;Laerm;57654;51.434;5.984;2023-10-31T00:42:35;34.42;32.78;36.81;;
69620;Laerm;57654;51.434;5.984;2023-10-31T00:42:45;33.39;30.76;40.07;;
69620;Laerm;57654;51.434;5.984;2023-10-31T00:42:56;31.79;30.36;36.05;;
69620;Laerm;57654;51.434;5.984;2023-10-31T00:43:08;32.04;30.54;35.67;;
69620;Laerm;57654;51.434;5.984;2023-10-31T00:43:18;31.32;29.52;33.74;;
69620;Laerm;57654;51.434;5.984;2023-10-31T00:43:28;31.05;29.54;35.94;;
69620;Laerm;57654;51.434;5.984;2023-10-31T00:43:39;30.75;29.14;33.93;;
69620;Laerm;57654;51.434;5.984;2023-10-31T00:43:49;31.39;29.96;34.20;;
69620;Laerm;57654;51.434;5.984;2023-10-31T00:43:59;30.86;28.88;35.72;;
69620;Laerm;57654;51.434;5.984;2023-10-31T00:44:09;30.51;29.24;34.94;;
69620;Laerm;57654;51.434;5.984;2023-10-31T00:44:20;30.48;28.80;35.50;;
69620;Laerm;57654;51.434;5.984;2023-10-31T00:44:30;30.82;29.19;37.17;;
69620;Laerm;57654;51.434;5.984;2023-10-31T00:44:40;31.55;29.49;36.38;;
69620;Laerm;57654;51.434;5.984;2023-10-31T00:44:50;32.11;30.09;36.10;;
69620;Laerm;57654;51.434;5.984;2023-10-31T00:45:01;31.17;29.86;35.01;;
69620;Laerm;57654;51.434;5.984;2023-10-31T00:45:11;31.04;29.49;33.31;;
69620;Laerm;57654;51.434;5.984;2023-10-31T00:45:21;30.61;29.23;33.67;;
69620;Laerm;57654;51.434;5.984;2023-10-31T00:45:31;31.30;29.54;33.59;;
69620;Laerm;57654;51.434;5.984;2023-10-31T00:45:42;31.19;29.64;33.71;;
69620;Laerm;57654;51.434;5.984;2023-10-31T00:45:52;30.93;29.41;33.47;;
69620;Laerm;57654;51.434;5.984;2023-10-31T00:46:04;31.32;29.27;39.40;;
69620;Laerm;57654;51.434;5.984;2023-10-31T00:46:14;32.89;30.17;36.52;;
69620;Laerm;57654;51.434;5.984;2023-10-31T00:46:25;32.29;30.99;36.81;;
69620;Laerm;57654;51.434;5.984;2023-10-31T00:46:35;32.49;30.79;35.86;;
69620;Laerm;57654;51.434;5.984;2023-10-31T00:46:45;32.59;31.05;36.07;;
69620;Laerm;57654;51.434;5.984;2023-10-31T00:46:55;35.11;31.23;38.84;;
69620;Laerm;57654;51.434;5.984;2023-10-31T00:47:06;31.48;29.98;34.89;;
69620;Laerm;57654;51.434;5.984;2023-10-31T00:47:16;31.78;29.64;36.01;;
69620;Laerm;57654;51.434;5.984;2023-10-31T00:47:27;31.06;29.85;34.11;;
69620;Laerm;57654;51.434;5.984;2023-10-31T00:47:38;31.59;30.28;35.32;;
69620;Laerm;57654;51.434;5.984;2023-10-31T00:47:48;31.53;30.10;34.87;;
69620;Laerm;57654;51.434;5.984;2023-10-31T00:47:58;31.14;29.66;34.71;;
69620;Laerm;57654;51.434;5.984;2023-10-31T00:48:08;30.83;29.19;34.46;;
69620;Laerm;57654;51.434;5.984;2023-10-31T00:48:18;30.83;29.28;34.53;;
69620;Laerm;57654;51.434;5.984;2023-10-31T00:48:30;30.70;29.00;35.23;;
69620;Laerm;57654;51.434;5.984;2023-10-31T00:48:42;30.59;29.03;37.60;;
69620;Laerm;57654;51.434;5.984;2023-10-31T00:48:52;31.06;29.52;36.08;;
69620;Laerm;57654;51.434;5.984;2023-10-31T00:49:02;31.81;30.08;38.46;;
69620;Laerm;57654;51.434;5.984;2023-10-31T00:49:13;30.85;29.44;34.38;;
69620;Laerm;57654;51.434;5.984;2023-10-31T00:49:23;30.79;29.51;34.55;;
69620;Laerm;57654;51.434;5.984;2023-10-31T00:49:33;30.86;29.41;35.64;;
69620;Laerm;57654;51.434;5.984;2023-10-31T00:49:43;31.24;29.22;35.69;;
69620;Laerm;57654;51.434;5.984;2023-10-31T00:49:54;32.56;30.31;36.25;;
69620;Laerm;57654;51.434;5.984;2023-10-31T00:50:04;30.87;29.22;35.80;;
69620;Laerm;57654;51.434;5.984;2023-10-31T00:50:14;30.47;28.82;35.18;;
69620;Laerm;57654;51.434;5.984;2023-10-31T00:50:25;30.43;29.22;33.39;;
69620;Laerm;57654;51.434;5.984;2023-10-31T00:50:35;30.86;29.25;35.22;;
69620;Laerm;57654;51.434;5.984;2023-10-31T00:50:45;31.18;29.67;34.91;;
69620;Laerm;57654;51.434;5.984;2023-10-31T00:50:55;30.76;29.25;34.17;;
69620;Laerm;57654;51.434;5.984;2023-10-31T00:51:06;30.72;29.47;34.05;;
69620;Laerm;57654;51.434;5.984;2023-10-31T00:51:16;30.37;28.97;33.31;;
69620;Laerm;57654;51.434;5.984;2023-10-31T00:51:27;30.42;28.93;33.91;;
69620;Laerm;57654;51.434;5.984;2023-10-31T00:51:37;30.56;28.92;33.75;;
69620;Laerm;57654;51.434;5.984;2023-10-31T00:51:47;30.40;28.86;34.87;;
69620;Laerm;57654;51.434;5.984;2023-10-31T00:51:57;30.36;28.69;36.64;;
69620;Laerm;57654;51.434;5.984;2023-10-31T00:52:08;30.57;28.79;34.64;;
69620;Laerm;57654;51.434;5.984;2023-10-31T00:52:18;30.16;28.17;34.86;;
69620;Laerm;57654;51.434;5.984;2023-10-31T00:52:28;31.39;29.84;33.68;;
69620;Laerm;57654;51.434;5.984;2023-10-31T00:52:38;31.57;29.95;35.22;;
69620;Laerm;57654;51.434;5.984;2023-10-31T00:52:49;31.01;29.30;33.54;;
69620;Laerm;57654;51.434;5.984;2023-10-31T00:52:59;30.90;29.60;36.92;;
69620;Laerm;57654;51.434;5.984;2023-10-31T00:53:09;30.53;28.87;34.86;;
69620;Laerm;57654;51.434;5.984;2023-10-31T00:53:19;30.69;28.93;36.34;;
69620;Laerm;57654;51.434;5.984;2023-10-31T00:53:30;30.60;28.68;34.12;;
69620;Laerm;57654;51.434;5.984;2023-10-31T00:53:40;31.08;29.38;36.23;;
69620;Laerm;57654;51.434;5.984;2023-10-31T00:53:50;30.39;29.03;34.04;;
69620;Laerm;57654;51.434;5.984;2023-10-31T00:54:01;30.52;29.09;34.38;;
69620;Laerm;57654;51.434;5.984;2023-10-31T00:54:11;30.30;28.87;33.24;;
69620;Laerm;57654;51.434;5.984;2023-10-31T00:54:22;30.54;28.76;35.30;;
69620;Laerm;57654;51.434;5.984;2023-10-31T00:54:32;31.63;30.15;34.87;;
69620;Laerm;57654;51.434;5.984;2023-10-31T00:54:43;31.45;29.93;34.97;;
69620;Laerm;57654;51.434;5.984;2023-10-31T00:54:53;31.22;29.31;34.75;;
69620;Laerm;57654;51.434;5.984;2023-10-31T00:55:03;30.71;29.24;37.16;;
69620;Laerm;57654;51.434;5.984;2023-10-31T00:55:14;30.42;28.97;33.57;;
69620;Laerm;57654;51.434;5.984;2023-10-31T00:55:24;31.30;29.57;34.13;;
69620;Laerm;57654;51.434;5.984;2023-10-31T00:55:35;31.60;30.13;34.03;;
69620;Laerm;57654;51.434;5.984;2023-10-31T00:55:45;31.79;30.09;34.24;;
69620;Laerm;57654;51.434;5.984;2023-10-31T00:55:55;32.87;30.84;35.86;;
69620;Laerm;57654;51.434;5.984;2023-10-31T00:56:06;41.28;33.47;46.35;;
69620;Laerm;57654;51.434;5.984;2023-10-31T00:56:16;46.63;44.24;48.66;;
69620;Laerm;57654;51.434;5.984;2023-10-31T00:56:26;45.50;44.09;46.86;;
69620;Laerm;57654;51.434;5.984;2023-10-31T00:56:36;43.08;34.19;46.43;;
69620;Laerm;57654;51.434;5.984;2023-10-31T00:56:47;32.09;29.87;36.05;;
69620;Laerm;57654;51.434;5.984;2023-10-31T00:56:57;30.96;29.16;37.83;;
69620;Laerm;57654;51.434;5.984;2023-10-31T00:57:07;30.44;29.08;34.63;;
69620;Laerm;57654;51.434;5.984;2023-10-31T00:57:17;30.51;28.82;36.84;;
69620;Laerm;57654;51.434;5.984;2023-10-31T00:57:27;30.71;28.89;36.23;;
69620;Laerm;57654;51.434;5.984;2023-10-31T00:57:38;30.39;28.70;33.13;;
69620;Laerm;57654;51.434;5.984;2023-10-31T00:57:48;30.35;28.92;34.70;;
69620;Laerm;57654;51.434;5.984;2023-10-31T00:57:58;30.12;28.57;33.16;;